Ginga — JJ4054 — position and weather

sailwx.info

Track history (hours):
 
Tides and Currents Weather Stations Pressure Air Temp Water Temp Dewpoint Dewpoint Depression Visibility Wind Speed Wind Dir Waves Ship Positions

Ginga

Last reported at 2016-Aug-29 04:34 UTC. Time now 2016-Aug-30 03:11 UTC.
Position N 34°39' E 135°10'.

Length 28 m; draft 1.6 m.

Type: Other ship. MMSI: 431301704.

Date/timePositionNaut miles runAvg speedWind from/ knotsBaromVisibWave heightAir tempDewpointWater temp
2016-Aug-29 04:34N 34°39' E 135°10'12 3.9
2016-Aug-29 01:33N 34°28' E 135°04'9 9.0
2016-Aug-29 00:33N 34°37' E 135°01'5 0.2
2016-Aug-27 21:30N 34°36' E 134°55'9 9.8
2016-Aug-27 20:33N 34°36' E 135°06'7 6.7
2016-Aug-27 19:33N 34°29' E 135°06'5 1.6
2016-Aug-27 16:33N 34°25' E 135°01'1514.7
2016-Aug-27 15:34N 34°38' E 135°10'5 0.2
2016-Aug-26 10:33N 34°35' E 135°06'8 6.6
2016-Aug-26 09:22N 34°35' E 134°57'3 4.2
2016-Aug-26 08:33N 34°37' E 135°00'2 0.7
2016-Aug-26 06:30N 34°38' E 135°00'8 0.4
2016-Aug-25 13:13N 34°39' E 135°09'812.8
2016-Aug-25 12:33N 34°31' E 135°06'10 6.8
2016-Aug-25 11:04N 34°22' E 134°60'815.7
2016-Aug-25 10:33N 34°29' E 135°04'7 6.6
2016-Aug-25 09:33N 34°36' E 135°03'4 0.1
2016-Aug-24 02:33N 34°37' E 134°58'8 8.5
2016-Aug-24 01:33N 34°34' E 135°08'1110.4
2016-Aug-24 00:32N 34°24' E 135°03'1410.8
2016-Aug-23 23:15N 34°10' E 134°60'1011.3
2016-Aug-23 22:19N 34°21' E 134°60'1215.7
2016-Aug-23 21:33N 34°32' E 135°06'8 7.9
2016-Aug-23 20:33N 34°39' E 135°09'0 0.0
2016-Aug-22 13:07N 34°39' E 135°09'6 9.9
2016-Aug-22 12:31N 34°37' E 135°03'1 0.6
2016-Aug-22 11:33N 34°37' E 135°02'5 5.4
2016-Aug-22 10:33N 34°37' E 135°08'2 0.3
2016-Aug-22 03:34N 34°39' E 135°10'7 7.0
2016-Aug-22 02:30N 34°37' E 135°01'7 7.0
2016-Aug-22 01:33N 34°34' E 135°08'3 3.2
2016-Aug-22 00:33N 34°35' E 135°04'5 5.4
2016-Aug-21 23:33N 34°38' E 134°59'9 9.0
2016-Aug-21 22:33N 34°39' E 135°09'0 0.0
2016-Aug-21 06:29N 34°39' E 135°09'1314.1
2016-Aug-21 05:33N 34°34' E 135°24'3 3.1
2016-Aug-21 04:28N 34°33' E 135°20'5 5.4
2016-Aug-21 03:33N 34°34' E 135°14'10 9.6
2016-Aug-21 02:33N 34°38' E 135°03'0 0.0
2016-Aug-21 01:05N 34°38' E 135°03'5 8.8
2016-Aug-21 00:33N 34°37' E 134°57'9 9.0
2016-Aug-20 23:34N 34°37' E 135°08'3 2.6
2016-Aug-20 22:33N 34°39' E 135°09'0 0.0
2016-Aug-20 10:33N 34°39' E 135°10'10 7.2
2016-Aug-20 09:10N 34°37' E 134°58'4 1.6
2016-Aug-20 06:26N 34°38' E 135°03'1213.5
2016-Aug-20 05:33N 34°26' E 135°03'4 3.4
2016-Aug-20 04:17N 34°22' E 134°60'1216.4
2016-Aug-20 03:33N 34°29' E 135°11'1010.5
2016-Aug-20 02:33N 34°33' E 135°23'2 1.9
2016-Aug-20 01:31N 34°33' E 135°21'1414.6
2016-Aug-20 00:34N 34°37' E 135°04'5 1.1
2016-Aug-19 19:33N 34°38' E 134°58'7 6.7
2016-Aug-19 18:33N 34°35' E 135°05'5 5.2
2016-Aug-19 17:33N 34°39' E 135°09'  
Track history (hours):
 
Tides and Currents Weather Stations Pressure Air Temp Water Temp Dewpoint Dewpoint Depression Visibility Wind Speed Wind Dir Waves Ship Positions

Ginga

Last reported at 2016-Aug-29 04:34 UTC. Time now 2016-Aug-30 03:11 UTC.
Position N 34°39' E 135°10'.

Length 28 m; draft 1.6 m.

Type: Other ship. MMSI: 431301704.

Date/timePositionNaut miles runAvg speedWind from/ knotsBaromVisibWave heightAir tempDewpointWater temp
2016-Aug-29 04:34N 34°39' E 135°10'12 3.9
2016-Aug-29 01:33N 34°28' E 135°04'9 9.0
2016-Aug-29 00:33N 34°37' E 135°01'5 0.2
2016-Aug-27 21:30N 34°36' E 134°55'9 9.8
2016-Aug-27 20:33N 34°36' E 135°06'7 6.7
2016-Aug-27 19:33N 34°29' E 135°06'5 1.6
2016-Aug-27 16:33N 34°25' E 135°01'1514.7
2016-Aug-27 15:34N 34°38' E 135°10'5 0.2
2016-Aug-26 10:33N 34°35' E 135°06'8 6.6
2016-Aug-26 09:22N 34°35' E 134°57'3 4.2
2016-Aug-26 08:33N 34°37' E 135°00'2 0.7
2016-Aug-26 06:30N 34°38' E 135°00'8 0.4
2016-Aug-25 13:13N 34°39' E 135°09'812.8
2016-Aug-25 12:33N 34°31' E 135°06'10 6.8
2016-Aug-25 11:04N 34°22' E 134°60'815.7
2016-Aug-25 10:33N 34°29' E 135°04'7 6.6
2016-Aug-25 09:33N 34°36' E 135°03'4 0.1
2016-Aug-24 02:33N 34°37' E 134°58'8 8.5
2016-Aug-24 01:33N 34°34' E 135°08'1110.4
2016-Aug-24 00:32N 34°24' E 135°03'1410.8
2016-Aug-23 23:15N 34°10' E 134°60'1011.3
2016-Aug-23 22:19N 34°21' E 134°60'1215.7
2016-Aug-23 21:33N 34°32' E 135°06'8 7.9
2016-Aug-23 20:33N 34°39' E 135°09'0 0.0
2016-Aug-22 13:07N 34°39' E 135°09'6 9.9
2016-Aug-22 12:31N 34°37' E 135°03'1 0.6
2016-Aug-22 11:33N 34°37' E 135°02'5 5.4
2016-Aug-22 10:33N 34°37' E 135°08'2 0.3
2016-Aug-22 03:34N 34°39' E 135°10'7 7.0
2016-Aug-22 02:30N 34°37' E 135°01'7 7.0
2016-Aug-22 01:33N 34°34' E 135°08'3 3.2
2016-Aug-22 00:33N 34°35' E 135°04'5 5.4
2016-Aug-21 23:33N 34°38' E 134°59'9 9.0
2016-Aug-21 22:33N 34°39' E 135°09'0 0.0
2016-Aug-21 06:29N 34°39' E 135°09'1314.1
2016-Aug-21 05:33N 34°34' E 135°24'3 3.1
2016-Aug-21 04:28N 34°33' E 135°20'5 5.4
2016-Aug-21 03:33N 34°34' E 135°14'10 9.6
2016-Aug-21 02:33N 34°38' E 135°03'0 0.0
2016-Aug-21 01:05N 34°38' E 135°03'5 8.8
2016-Aug-21 00:33N 34°37' E 134°57'9 9.0
2016-Aug-20 23:34N 34°37' E 135°08'3 2.6
2016-Aug-20 22:33N 34°39' E 135°09'0 0.0
2016-Aug-20 10:33N 34°39' E 135°10'10 7.2
2016-Aug-20 09:10N 34°37' E 134°58'4 1.6
2016-Aug-20 06:26N 34°38' E 135°03'1213.5
2016-Aug-20 05:33N 34°26' E 135°03'4 3.4
2016-Aug-20 04:17N 34°22' E 134°60'1216.4
2016-Aug-20 03:33N 34°29' E 135°11'1010.5
2016-Aug-20 02:33N 34°33' E 135°23'2 1.9
2016-Aug-20 01:31N 34°33' E 135°21'1414.6
2016-Aug-20 00:34N 34°37' E 135°04'5 1.1
2016-Aug-19 19:33N 34°38' E 134°58'7 6.7
2016-Aug-19 18:33N 34°35' E 135°05'5 5.2
2016-Aug-19 17:33N 34°39' E 135°09'  

Dump ship's entire track history